Time;durP1;ratioP1;P1;durP2;ratioP2;P2;SDS_P1;SDS_P2;PMS_P1;PMS_P2;Temp;Humidity;BMP_temperature;BMP_pressure;BME280_temperature;BME280_humidity;BME280_pressure;Samples;Min_cycle;Max_cycle;Signal;HPM_P1;HPM_P2
2021/10/03 00:01:56;;;;;;;;;;;16.10;99.90;;;;;;6124161;28;20435;-81
2021/10/03 00:04:57;;;;;;;7.90;6.40;;;16.10;99.90;;;;;;6138790;28;19964;-84
2021/10/03 00:07:59;;;;;;;10.50;6.53;;;16.10;99.90;;;;;;6123044;28;20059;-80
2021/10/03 00:11:00;;;;;;;7.47;6.35;;;16.10;99.90;;;;;;6122983;28;20038;-83
2021/10/03 00:14:01;;;;;;;8.18;6.95;;;15.90;99.90;;;;;;6138487;28;20432;-82
2021/10/03 00:17:01;;;;;;;7.85;6.57;;;15.90;99.90;;;;;;6129667;28;20035;-84
2021/10/03 00:20:02;;;;;;;7.75;6.15;;;15.90;99.90;;;;;;6138582;28;20461;-81
2021/10/03 00:23:03;;;;;;;8.10;6.35;;;15.90;99.90;;;;;;6123097;28;20082;-82
2021/10/03 00:26:04;;;;;;;10.10;6.55;;;16.00;99.90;;;;;;6138198;28;20031;-84
2021/10/03 00:29:04;;;;;;;6.70;5.57;;;15.90;99.90;;;;;;6138253;28;20027;-82
2021/10/03 00:32:05;;;;;;;8.07;6.43;;;16.00;99.90;;;;;;6122362;28;20862;-85
2021/10/03 00:35:06;;;;;;;7.65;6.70;;;16.00;99.90;;;;;;6138461;28;20046;-80
2021/10/03 00:38:07;;;;;;;9.07;6.50;;;16.00;99.90;;;;;;6131727;28;20473;-82
2021/10/03 00:41:08;;;;;;;9.23;6.47;;;16.00;99.90;;;;;;6153415;28;20134;-80
2021/10/03 00:44:09;;;;;;;7.30;6.32;;;16.00;99.90;;;;;;6122136;28;20023;-86
2021/10/03 00:47:09;;;;;;;7.82;6.57;;;15.90;99.90;;;;;;6137695;28;20050;-82
2021/10/03 00:50:13;;;;;;;7.75;6.07;;;15.90;99.90;;;;;;6121827;28;20121;-83
2021/10/03 00:53:14;;;;;;;7.78;6.25;;;16.20;99.90;;;;;;6123548;28;20029;-81
2021/10/03 00:56:15;;;;;;;7.32;6.47;;;16.00;99.90;;;;;;6137721;28;20397;-81
2021/10/03 00:59:16;;;;;;;7.88;6.28;;;16.00;99.90;;;;;;6137403;28;20078;-81
2021/10/03 01:02:16;;;;;;;6.47;5.68;;;16.00;99.90;;;;;;6137089;28;20050;-85
2021/10/03 01:05:17;;;;;;;7.55;6.07;;;16.00;99.90;;;;;;6137389;28;20564;-81
2021/10/03 01:08:18;;;;;;;6.65;5.95;;;16.00;99.90;;;;;;6128518;28;20117;-83
2021/10/03 01:11:18;;;;;;;6.85;5.72;;;16.10;99.90;;;;;;6153393;28;20117;-81
2021/10/03 01:14:20;;;;;;;8.68;6.50;;;16.20;99.90;;;;;;6122086;28;20031;-83
2021/10/03 01:17:20;;;;;;;8.53;6.07;;;16.30;99.90;;;;;;6121859;28;20062;-82
2021/10/03 01:20:21;;;;;;;10.93;5.78;;;16.30;99.90;;;;;;6137278;28;20034;-83
2021/10/03 01:23:21;;;;;;;8.07;6.25;;;16.30;99.90;;;;;;6137296;28;20474;-84
2021/10/03 01:26:22;;;;;;;8.20;5.93;;;16.40;99.90;;;;;;6137252;28;20042;-81
2021/10/03 01:29:23;;;;;;;6.03;5.43;;;16.50;99.90;;;;;;6121579;28;20034;-83
2021/10/03 01:32:23;;;;;;;8.13;6.00;;;16.40;99.90;;;;;;6136990;28;20054;-83
2021/10/03 01:35:24;;;;;;;7.97;5.43;;;16.70;99.90;;;;;;6137058;28;20035;-80
2021/10/03 01:38:24;;;;;;;8.27;5.25;;;17.00;99.90;;;;;;6136262;28;20381;-81
2021/10/03 01:41:25;;;;;;;5.65;4.93;;;16.90;99.90;;;;;;6136989;28;20026;-82
2021/10/03 01:44:26;;;;;;;6.00;5.30;;;;;;;;;;6136825;28;20023;-81
2021/10/03 01:47:27;;;;;;;10.40;6.43;;;;;;;;;;6153045;28;20055;-81
2021/10/03 01:50:28;;;;;;;5.50;5.00;;;;;;;;;;6152785;28;20350;-80
2021/10/03 01:53:31;;;;;;;6.75;5.03;;;16.70;99.90;;;;;;6156515;28;20063;-81
2021/10/03 01:56:32;;;;;;;;;;;16.80;99.90;;;;;;6142543;28;20042;-81
2021/10/03 01:59:32;;;;;;;5.60;4.97;;;16.70;99.90;;;;;;6142157;28;19906;-82
2021/10/03 02:02:33;;;;;;;5.82;4.88;;;16.70;99.90;;;;;;6125875;28;20022;-80
2021/10/03 02:05:38;;;;;;;7.25;5.47;;;16.80;99.90;;;;;;6125322;28;20440;-83
2021/10/03 02:08:39;;;;;;;5.32;4.68;;;16.80;99.90;;;;;;6141268;28;20062;-80
2021/10/03 02:11:44;;;;;;;6.55;5.20;;;17.30;99.90;;;;;;6141136;28;20392;-82
2021/10/03 02:14:44;;;;;;;7.53;5.50;;;17.20;99.90;;;;;;6141507;28;20027;-82
2021/10/03 02:17:45;;;;;;;7.68;4.90;;;;;;;;;;6141410;28;20105;-81
2021/10/03 02:20:49;;;;;;;5.43;4.93;;;17.20;99.90;;;;;;6157364;28;20373;-82
2021/10/03 02:23:50;;;;;;;7.00;4.97;;;17.00;99.90;;;;;;6141382;28;20081;-80
2021/10/03 02:26:50;;;;;;;8.05;5.00;;;16.90;99.90;;;;;;6140972;28;20117;-81
2021/10/03 02:29:51;;;;;;;5.38;4.72;;;16.80;99.90;;;;;;6125408;28;20035;-80
2021/10/03 02:32:52;;;;;;;5.55;4.70;;;16.80;99.90;;;;;;6129849;28;20023;-81
2021/10/03 02:35:54;;;;;;;4.93;4.43;;;16.80;99.90;;;;;;6125045;28;20046;-80
2021/10/03 02:38:54;;;;;;;6.72;4.60;;;16.70;99.90;;;;;;6132329;28;20908;-81
2021/10/03 02:41:55;;;;;;;5.75;4.65;;;16.60;99.90;;;;;;6141015;28;20030;-81
2021/10/03 02:44:56;;;;;;;5.53;4.32;;;16.90;99.90;;;;;;6140262;28;20090;-83
2021/10/03 02:47:56;;;;;;;6.32;4.78;;;16.90;99.90;;;;;;6140703;28;20102;-84
2021/10/03 02:50:57;;;;;;;6.05;4.63;;;16.80;99.90;;;;;;6124514;28;20065;-82
2021/10/03 02:53:58;;;;;;;10.63;4.40;;;16.70;99.90;;;;;;6124235;28;20015;-83
2021/10/03 02:56:58;;;;;;;5.40;4.50;;;16.60;99.90;;;;;;6140476;28;20512;-84
2021/10/03 02:59:59;;;;;;;5.13;4.32;;;16.60;99.90;;;;;;6140179;28;20022;-80
2021/10/03 03:02:59;;;;;;;7.35;4.65;;;16.60;99.90;;;;;;6139825;28;20154;-82
2021/10/03 03:06:01;;;;;;;5.88;4.50;;;16.60;99.90;;;;;;6123805;28;20082;-81
2021/10/03 03:09:01;;;;;;;5.00;4.10;;;16.40;99.90;;;;;;6139958;28;20051;-80
2021/10/03 03:12:02;;;;;;;8.68;4.68;;;16.30;99.90;;;;;;6139670;28;20076;-83
2021/10/03 03:15:04;;;;;;;5.53;3.70;;;16.20;99.90;;;;;;6124569;28;20031;-82
2021/10/03 03:18:05;;;;;;;5.30;4.35;;;16.40;99.90;;;;;;6124245;28;20121;-83
2021/10/03 03:21:06;;;;;;;6.45;4.50;;;16.00;99.90;;;;;;6129842;28;20034;-85
2021/10/03 03:24:06;;;;;;;4.63;4.10;;;16.10;99.90;;;;;;6140189;28;20069;-84
2021/10/03 03:27:07;;;;;;;4.70;4.13;;;16.00;99.90;;;;;;6139393;28;20358;-82
2021/10/03 03:30:09;;;;;;;6.95;4.45;;;16.00;99.90;;;;;;6139621;28;20752;-83
2021/10/03 03:33:10;;;;;;;4.82;4.40;;;16.00;99.90;;;;;;6139432;28;20035;-81
2021/10/03 03:36:11;;;;;;;5.30;4.63;;;16.00;99.90;;;;;;6139730;28;20042;-81
2021/10/03 03:39:11;;;;;;;9.38;5.72;;;15.90;99.90;;;;;;6123680;28;20034;-82
2021/10/03 03:42:12;;;;;;;5.03;4.30;;;15.90;99.90;;;;;;6139433;28;20037;-79
2021/10/03 03:45:12;;;;;;;5.95;4.43;;;15.80;99.90;;;;;;6139257;28;20046;-81
2021/10/03 03:48:13;;;;;;;5.47;4.45;;;15.70;99.90;;;;;;6123481;28;20523;-81
2021/10/03 03:51:13;;;;;;;6.38;4.18;;;15.70;99.90;;;;;;6127605;28;20085;-84
2021/10/03 03:54:14;;;;;;;5.45;4.05;;;15.90;99.90;;;;;;6131997;28;20026;-81
2021/10/03 03:57:15;;;;;;;5.20;3.83;;;15.70;99.90;;;;;;6138918;28;20056;-83
2021/10/03 04:00:15;;;;;;;9.77;6.43;;;15.90;99.90;;;;;;6138851;28;20019;-83
2021/10/03 04:03:16;;;;;;;4.93;4.07;;;15.80;99.90;;;;;;6138912;28;20027;-83
2021/10/03 04:06:17;;;;;;;4.82;4.32;;;;;;;;;;6123588;28;20440;-83
2021/10/03 04:09:18;;;;;;;6.18;4.07;;;;;;;;;;6154415;28;20054;-82
2021/10/03 04:12:18;;;;;;;5.05;4.55;;;15.80;99.90;;;;;;6138772;28;20473;-83
2021/10/03 04:15:19;;;;;;;8.05;4.60;;;15.70;99.90;;;;;;6137832;28;20022;-85
2021/10/03 04:18:20;;;;;;;6.07;4.45;;;;;;;;;;6138671;28;20035;-83
2021/10/03 04:21:21;;;;;;;7.63;4.95;;;15.70;99.90;;;;;;6154389;28;20105;-85
2021/10/03 04:24:21;;;;;;;5.13;4.60;;;15.70;99.90;;;;;;6138475;28;20450;-83
2021/10/03 04:27:22;;;;;;;5.78;4.20;;;16.00;99.90;;;;;;6138390;28;20113;-83
2021/10/03 04:30:22;;;;;;;6.00;4.10;;;15.90;99.90;;;;;;6122665;28;20065;-84
2021/10/03 04:33:23;;;;;;;4.45;4.00;;;16.30;99.90;;;;;;6122159;28;20073;-83
2021/10/03 04:36:24;;;;;;;9.43;4.15;;;;;;;;;;6122764;28;20046;-82
2021/10/03 04:39:26;;;;;;;4.55;4.13;;;16.90;99.90;;;;;;6138640;28;20487;-82
2021/10/03 04:42:26;;;;;;;6.80;4.47;;;16.80;99.90;;;;;;6137849;28;20026;-82
2021/10/03 04:45:27;;;;;;;5.00;4.18;;;16.40;99.90;;;;;;6137760;28;20354;-82
2021/10/03 04:48:27;;;;;;;5.00;4.05;;;16.60;99.90;;;;;;6138299;28;20038;-81
2021/10/03 04:51:28;;;;;;;5.45;4.25;;;;;;;;;;6137699;28;20045;-84
2021/10/03 04:54:29;;;;;;;4.90;4.40;;;;;;;;;;6146060;28;20054;-82
2021/10/03 04:57:30;;;;;;;6.18;4.47;;;;;;;;;;6154037;28;20368;-82
2021/10/03 05:00:31;;;;;;;4.72;3.90;;;;;;;;;;6153747;28;20029;-85
2021/10/03 05:03:35;;;;;;;5.00;3.72;;;;;;;;;;6153723;28;20031;-82
2021/10/03 05:06:35;;;;;;;4.03;3.50;;;17.30;99.90;;;;;;6153953;28;20537;-84
2021/10/03 05:09:36;;;;;;;6.40;4.10;;;17.70;99.90;;;;;;6137189;28;20046;-82
2021/10/03 05:12:37;;;;;;;5.43;3.92;;;;;;;;;;6153481;28;20039;-81
2021/10/03 05:15:38;;;;;;;6.18;4.00;;;;;;;;;;6153333;28;20110;-82
2021/10/03 05:18:39;;;;;;;4.65;3.85;;;;;;;;;;6153007;28;20366;-81
2021/10/03 05:21:40;;;;;;;3.97;3.58;;;;;;;;;;6152928;28;20029;-82
2021/10/03 05:24:40;;;;;;;4.20;3.80;;;17.90;99.90;;;;;;6153284;28;20019;-83
2021/10/03 05:27:41;;;;;;;4.80;4.18;;;17.70;99.90;;;;;;6121094;28;20461;-82
2021/10/03 05:30:42;;;;;;;4.97;3.70;;;18.00;98.90;;;;;;6121369;28;20030;-84
2021/10/03 05:33:43;;;;;;;6.68;4.13;;;;;;;;;;6153756;28;20150;-84
2021/10/03 05:36:43;;;;;;;4.40;3.65;;;17.70;99.90;;;;;;6152981;28;21035;-82
2021/10/03 05:39:44;;;;;;;5.20;4.43;;;17.50;99.90;;;;;;6137152;28;20015;-84
2021/10/03 05:42:45;;;;;;;6.95;4.47;;;;;;;;;;6153206;28;20039;-82
2021/10/03 05:45:46;;;;;;;4.95;4.15;;;17.20;99.90;;;;;;6137469;28;20050;-82
2021/10/03 05:48:46;;;;;;;3.92;3.53;;;17.20;99.90;;;;;;6137747;28;20073;-82
2021/10/03 05:51:47;;;;;;;5.30;4.43;;;16.80;99.90;;;;;;6121475;28;20042;-82
2021/10/03 05:54:48;;;;;;;4.35;3.95;;;;;;;;;;6152784;28;20113;-82
2021/10/03 05:57:48;;;;;;;6.85;3.88;;;16.80;99.90;;;;;;6137388;28;20018;-82
2021/10/03 06:00:49;;;;;;;5.22;3.90;;;16.70;99.90;;;;;;6121001;28;20038;-82
2021/10/03 06:03:50;;;;;;;4.78;4.28;;;;;;;;;;6136824;28;20093;-83
2021/10/03 06:06:51;;;;;;;6.40;4.13;;;16.80;99.90;;;;;;6153014;28;20015;-81
2021/10/03 06:09:52;;;;;;;4.77;4.27;;;17.10;99.90;;;;;;6136747;28;20445;-82
2021/10/03 06:12:52;;;;;;;8.52;4.68;;;17.00;99.90;;;;;;6120449;28;20039;-82
2021/10/03 06:15:54;;;;;;;7.47;3.88;;;17.10;99.90;;;;;;6136256;28;20026;-83
2021/10/03 06:18:55;;;;;;;7.93;4.30;;;16.90;99.90;;;;;;6152981;28;20081;-81
2021/10/03 06:21:57;;;;;;;5.57;3.78;;;16.90;99.90;;;;;;6136179;28;20066;-82
2021/10/03 06:24:58;;;;;;;4.50;3.97;;;17.30;99.90;;;;;;6121137;28;20109;-82
2021/10/03 06:27:59;;;;;;;5.57;3.85;;;17.40;99.90;;;;;;6120787;28;20357;-82
2021/10/03 06:31:02;;;;;;;6.07;4.10;;;17.10;99.90;;;;;;6135846;28;20049;-83
2021/10/03 06:34:02;;;;;;;4.72;4.10;;;17.10;99.90;;;;;;6136624;28;20520;-82
2021/10/03 06:37:03;;;;;;;4.63;3.92;;;17.00;99.90;;;;;;6120486;28;20114;-82
2021/10/03 06:40:06;;;;;;;6.70;3.70;;;17.00;99.90;;;;;;6124605;28;20035;-82
2021/10/03 06:43:12;;;;;;;4.88;4.38;;;17.10;99.90;;;;;;6140876;28;20034;-82
2021/10/03 06:46:13;;;;;;;7.32;5.43;;;16.90;99.90;;;;;;6124680;28;20034;-82
2021/10/03 06:49:14;;;;;;;7.40;6.03;;;17.30;99.90;;;;;;6140527;28;20030;-81
2021/10/03 06:52:14;;;;;;;4.47;3.65;;;17.10;99.90;;;;;;6141657;28;20046;-80
2021/10/03 06:55:15;;;;;;;11.18;4.20;;;17.20;99.90;;;;;;6140458;28;20019;-80
2021/10/03 06:58:16;;;;;;;6.93;4.25;;;17.20;99.90;;;;;;6173569;28;20109;-80
2021/10/03 07:01:16;;;;;;;4.22;3.83;;;17.20;99.90;;;;;;6173669;28;20045;-80
2021/10/03 07:04:17;;;;;;;6.15;4.15;;;17.10;99.90;;;;;;6140423;28;20113;-80
2021/10/03 07:07:17;;;;;;;4.40;3.80;;;17.70;99.90;;;;;;6139920;28;20081;-80
2021/10/03 07:10:18;;;;;;;4.57;3.80;;;17.70;99.90;;;;;;6140185;28;20468;-80
2021/10/03 07:13:19;;;;;;;5.35;3.95;;;17.70;99.90;;;;;;6140145;28;20136;-78
2021/10/03 07:16:19;;;;;;;3.70;3.10;;;17.70;99.90;;;;;;6140096;28;20410;-80
2021/10/03 07:19:20;;;;;;;4.35;3.53;;;18.30;99.10;;;;;;6155032;28;20038;-79
2021/10/03 07:22:20;;;;;;;4.68;3.40;;;18.90;97.90;;;;;;6155546;28;20025;-77
2021/10/03 07:25:21;;;;;;;5.22;3.38;;;19.00;97.30;;;;;;6139270;28;20035;-77
2021/10/03 07:28:23;;;;;;;4.32;3.25;;;19.40;97.40;;;;;;6173441;28;20026;-78
2021/10/03 07:31:24;;;;;;;4.93;3.47;;;19.50;97.40;;;;;;6139120;28;20137;-77
2021/10/03 07:34:24;;;;;;;5.22;3.30;;;19.60;97.00;;;;;;6123492;28;20023;-78
2021/10/03 07:37:25;;;;;;;5.20;3.38;;;19.70;95.80;;;;;;6139660;28;20412;-77
2021/10/03 07:40:26;;;;;;;3.30;2.92;;;19.90;99.90;;;;;;6155440;28;20034;-78
2021/10/03 07:43:26;;;;;;;5.07;3.83;;;19.90;95.40;;;;;;6172328;28;20775;-78
2021/10/03 07:46:28;;;;;;;5.30;3.13;;;20.00;96.20;;;;;;6155108;28;20037;-78
2021/10/03 07:49:29;;;;;;;4.25;3.15;;;20.10;95.00;;;;;;6155524;28;20026;-78
2021/10/03 07:52:29;;;;;;;3.63;2.97;;;20.30;94.80;;;;;;6154688;28;20366;-80
2021/10/03 07:55:30;;;;;;;6.25;3.13;;;20.70;99.90;;;;;;6154018;28;20704;-81
2021/10/03 07:58:31;;;;;;;5.53;2.97;;;20.50;92.40;;;;;;6155117;28;20468;-80
2021/10/03 08:01:31;;;;;;;3.60;3.28;;;20.60;91.40;;;;;;6155188;28;20038;-79
2021/10/03 08:04:32;;;;;;;4.45;3.42;;;20.90;91.30;;;;;;6155011;28;20027;-81
2021/10/03 08:07:32;;;;;;;4.25;3.13;;;21.00;90.90;;;;;;6172701;28;20035;-78
2021/10/03 08:10:33;;;;;;;3.33;3.03;;;20.90;90.90;;;;;;6171618;28;20077;-79
2021/10/03 08:13:34;;;;;;;3.58;3.08;;;20.70;90.70;;;;;;6154647;28;20056;-78
2021/10/03 08:16:34;;;;;;;4.68;3.00;;;20.90;97.60;;;;;;6138545;28;20077;-79
2021/10/03 08:19:35;;;;;;;3.50;3.08;;;20.80;90.10;;;;;;6137501;28;20034;-78
2021/10/03 08:22:36;;;;;;;3.80;3.20;;;;;;;;;;6171879;28;20042;-80
2021/10/03 08:25:37;;;;;;;3.30;2.70;;;;;;;;;;6154071;28;20034;-79
2021/10/03 08:28:38;;;;;;;3.42;2.95;;;;;;;;;;6152697;28;20389;-78
2021/10/03 08:31:39;;;;;;;3.65;3.20;;;;;;;;;;6171166;28;20504;-78
2021/10/03 08:34:40;;;;;;;3.80;3.30;;;;;;;;;;6172236;28;20026;-78
2021/10/03 08:37:42;;;;;;;3.20;2.90;;;;;;;;;;6154457;28;20034;-78
2021/10/03 08:40:44;;;;;;;3.63;3.03;;;22.40;93.40;;;;;;6138635;28;20041;-79
2021/10/03 08:43:44;;;;;;;3.42;3.00;;;21.60;93.80;;;;;;6137703;28;20437;-78
2021/10/03 08:46:48;;;;;;;5.20;3.00;;;21.60;83.90;;;;;;6138232;28;20030;-79
2021/10/03 08:49:49;;;;;;;3.58;3.28;;;21.70;83.80;;;;;;6153719;28;20023;-79
2021/10/03 08:52:50;;;;;;;3.15;2.85;;;21.60;83.00;;;;;;6122193;28;20030;-79
2021/10/03 08:55:56;;;;;;;7.43;3.10;;;21.80;93.00;;;;;;6153028;28;20042;-78
2021/10/03 08:58:56;;;;;;;3.40;3.10;;;21.70;83.50;;;;;;6154280;28;20368;-78
2021/10/03 09:01:57;;;;;;;3.13;2.83;;;;;;;;;;6170768;28;20037;-78
2021/10/03 09:04:58;;;;;;;2.90;2.63;;;21.70;94.40;;;;;;6153711;28;20517;-78
2021/10/03 09:08:18;;;;;;;3.58;3.28;;;21.70;82.60;;;;;;6170889;28;20289;-79
2021/10/03 09:11:19;;;;;;;3.38;3.08;;;21.70;81.20;;;;;;6153566;28;20038;-79
2021/10/03 09:14:34;;;;;;;4.30;3.15;;;21.70;81.80;;;;;;6170749;28;20019;-78
2021/10/03 09:17:35;;;;;;;4.05;3.33;;;21.80;88.50;;;;;;6121667;28;20097;-78
2021/10/03 09:20:37;;;;;;;4.53;3.47;;;21.50;92.40;;;;;;6152970;28;20030;-79
2021/10/03 09:23:37;;;;;;;3.55;3.22;;;21.30;93.30;;;;;;6153317;28;20049;-78
2021/10/03 09:27:07;;;;;;;3.63;3.10;;;21.20;94.30;;;;;;6152731;28;20054;-78
2021/10/03 09:30:07;;;;;;;4.60;3.50;;;21.00;94.30;;;;;;6156937;28;20045;-79
2021/10/03 09:33:08;;;;;;;11.52;3.55;;;20.90;94.90;;;;;;6167222;28;20114;-78
2021/10/03 09:36:11;;;;;;;3.72;3.15;;;20.80;96.30;;;;;;6169660;28;20118;-78
2021/10/03 09:39:12;;;;;;;3.88;3.08;;;20.80;95.80;;;;;;6136835;28;20043;-79
2021/10/03 09:42:13;;;;;;;5.70;3.88;;;20.70;95.80;;;;;;6170112;28;20150;-80
2021/10/03 09:45:15;;;;;;;3.58;3.28;;;20.60;95.90;;;;;;6137090;28;20031;-84
2021/10/03 09:48:16;;;;;;;5.93;3.90;;;20.30;99.90;;;;;;6136681;28;20043;-79
2021/10/03 09:51:17;;;;;;;3.25;2.95;;;20.40;96.30;;;;;;6168814;28;20046;-82
2021/10/03 09:54:18;;;;;;;6.93;3.53;;;20.30;99.90;;;;;;6136590;28;20085;-81
2021/10/03 09:57:19;;;;;;;3.42;3.03;;;20.20;96.90;;;;;;6153072;28;20030;-79
2021/10/03 10:00:20;;;;;;;3.40;3.10;;;20.10;96.60;;;;;;6152729;28;20177;-79
2021/10/03 10:03:21;;;;;;;4.30;3.90;;;20.00;97.40;;;;;;6136705;28;20031;-80
2021/10/03 10:06:22;;;;;;;3.60;3.30;;;19.80;99.90;;;;;;6153025;28;20122;-79
2021/10/03 10:09:23;;;;;;;5.65;3.17;;;19.80;99.90;;;;;;6152647;28;20378;-81
2021/10/03 10:12:24;;;;;;;4.25;3.10;;;20.30;99.90;;;;;;6121391;28;20047;-82
2021/10/03 10:15:24;;;;;;;5.57;3.67;;;21.00;99.40;;;;;;6141503;28;20037;-82
2021/10/03 10:18:25;;;;;;;7.22;3.75;;;22.00;99.30;;;;;;6141388;28;20027;-84
2021/10/03 10:21:26;;;;;;;5.47;3.40;;;23.90;99.60;;;;;;6126169;28;20031;-82
2021/10/03 10:24:52;;;;;;;3.25;2.95;;;24.90;99.90;;;;;;6141697;28;20034;-82
2021/10/03 10:27:54;;;;;;;4.15;2.83;;;;;;;;;;6156801;28;20351;-81
2021/10/03 10:31:17;;;;;;;3.38;3.08;;;25.00;93.10;;;;;;6156592;28;20408;-82
2021/10/03 10:34:18;;;;;;;4.18;3.40;;;24.50;99.90;;;;;;6156764;28;20022;-81
2021/10/03 10:37:18;;;;;;;4.40;3.00;;;24.10;99.90;;;;;;6141399;28;20429;-81
2021/10/03 10:40:22;;;;;;;4.60;2.80;;;24.00;99.90;;;;;;6124709;28;20031;-84
2021/10/03 10:51:11;;;;;;;4.18;3.15;;;23.40;94.40;;;;;;6431474;23;20063;-83
2021/10/03 10:54:13;;;;;;;3.92;2.90;;;23.20;90.10;;;;;;6177997;28;20105;-84
2021/10/03 10:57:13;;;;;;;2.95;2.65;;;22.90;88.20;;;;;;6145397;28;20034;-81
2021/10/03 11:00:28;;;;;;;3.60;3.00;;;22.30;88.50;;;;;;6156854;28;20109;-83
2021/10/03 11:07:27;;;;;;;3.10;2.63;;;23.00;90.50;;;;;;6173884;28;20114;-83
2021/10/03 11:10:28;;;;;;;3.15;2.85;;;22.60;91.00;;;;;;6154759;28;20687;-83
2021/10/03 11:13:40;;;;;;;4.28;2.65;;;22.40;91.90;;;;;;6123372;28;20039;-83
2021/10/03 11:16:48;;;;;;;4.13;3.05;;;22.10;92.90;;;;;;6172634;28;20035;-83
2021/10/03 11:19:49;;;;;;;3.30;2.97;;;21.80;94.90;;;;;;6124322;28;20034;-84
2021/10/03 11:22:50;;;;;;;3.50;3.20;;;21.60;95.50;;;;;;6139247;28;20073;-81
2021/10/03 11:25:59;;;;;;;4.40;3.05;;;21.40;95.20;;;;;;6139667;28;20019;-81
2021/10/03 11:29:00;;;;;;;4.13;3.30;;;21.20;96.90;;;;;;6138011;28;20046;-80
2021/10/03 11:32:11;;;;;;;4.20;3.42;;;21.00;97.50;;;;;;6138401;28;20453;-81
2021/10/03 11:35:12;;;;;;;3.37;3.07;;;20.90;96.70;;;;;;6140159;28;20422;-80
2021/10/03 11:38:13;;;;;;;3.60;3.20;;;20.80;97.50;;;;;;6138935;28;20782;-78
2021/10/03 11:41:13;;;;;;;5.18;3.03;;;20.70;98.30;;;;;;6172436;28;20078;-79
2021/10/03 11:44:20;;;;;;;5.55;3.45;;;20.30;99.90;;;;;;6139495;28;20031;-78
2021/10/03 11:47:21;;;;;;;5.88;2.92;;;20.50;99.90;;;;;;6154637;28;20027;-79
2021/10/03 11:50:25;;;;;;;3.40;3.00;;;20.30;99.20;;;;;;6145269;28;20077;-79
2021/10/03 11:53:32;;;;;;;4.95;3.15;;;20.10;99.90;;;;;;6147008;29;20015;-78
2021/10/03 11:56:37;;;;;;;5.30;3.70;;;20.30;99.90;;;;;;6148567;29;20370;-80
2021/10/03 11:59:38;;;;;;;5.22;3.22;;;;;;;;;;6130850;28;20440;-78
2021/10/03 12:02:47;;;;;;;3.85;3.20;;;20.10;99.90;;;;;;6147807;29;20051;-84
2021/10/03 12:05:48;;;;;;;4.60;3.13;;;;;;;;;;6115421;29;20429;-85
2021/10/03 12:08:50;;;;;;;4.33;3.30;;;20.00;99.90;;;;;;6115127;29;20039;-83
2021/10/03 12:11:54;;;;;;;;;;;20.00;99.90;;;;;;6131354;29;20309;-82
2021/10/03 12:14:54;;;;;;;3.67;3.05;;;20.00;99.90;;;;;;6130880;29;20288;-79
2021/10/03 12:17:55;;;;;;;6.35;3.47;;;20.00;99.90;;;;;;6144928;28;20087;-81
2021/10/03 12:21:08;;;;;;;5.15;3.30;;;20.00;99.90;;;;;;6144879;29;20028;-80
2021/10/03 12:24:11;;;;;;;4.25;3.85;;;20.10;99.90;;;;;;6143375;29;20051;-82
2021/10/03 12:27:21;;;;;;;4.10;3.30;;;20.60;99.90;;;;;;6125573;29;20031;-80
2021/10/03 12:30:22;;;;;;;4.97;3.58;;;19.90;99.90;;;;;;6143167;29;20046;-79
2021/10/03 12:33:23;;;;;;;4.20;3.70;;;19.80;99.90;;;;;;6144394;29;20043;-79
2021/10/03 12:36:24;;;;;;;5.33;4.23;;;19.90;99.90;;;;;;6124970;29;20034;-79
2021/10/03 12:39:28;;;;;;;5.70;3.80;;;19.80;99.90;;;;;;6146064;29;20279;-80
2021/10/03 12:42:30;;;;;;;5.30;3.53;;;19.80;99.90;;;;;;6146938;29;20532;-80
2021/10/03 12:45:30;;;;;;;4.43;3.70;;;19.90;99.90;;;;;;6114220;29;20034;-79
2021/10/03 12:48:31;;;;;;;3.85;3.35;;;19.90;99.90;;;;;;6145046;28;20036;-79
2021/10/03 12:51:31;;;;;;;4.50;3.78;;;19.90;99.90;;;;;;6131358;29;20047;-80
2021/10/03 12:54:32;;;;;;;3.83;3.17;;;19.90;99.90;;;;;;6146609;29;20077;-79
2021/10/03 12:57:33;;;;;;;4.25;3.33;;;19.80;99.90;;;;;;6097770;28;20430;-81
2021/10/03 13:00:33;;;;;;;3.42;3.08;;;19.80;99.90;;;;;;6097692;29;20042;-80
2021/10/03 13:03:37;;;;;;;4.93;3.20;;;19.80;99.90;;;;;;6129597;28;20027;-80
2021/10/03 13:06:38;;;;;;;4.20;3.35;;;19.70;99.90;;;;;;6114233;29;20058;-80
2021/10/03 13:09:39;;;;;;;4.32;3.53;;;19.70;99.90;;;;;;6128648;29;20027;-80
2021/10/03 13:12:40;;;;;;;3.58;3.20;;;19.50;99.90;;;;;;6113410;29;20589;-80
2021/10/03 13:15:40;;;;;;;7.95;3.58;;;19.40;99.90;;;;;;6146552;29;20023;-82
2021/10/03 13:18:41;;;;;;;4.55;3.78;;;19.30;99.90;;;;;;6128728;29;20394;-80
2021/10/03 13:21:42;;;;;;;5.10;3.60;;;19.30;99.90;;;;;;6097394;29;20035;-81
2021/10/03 13:24:42;;;;;;;3.97;3.50;;;19.30;99.90;;;;;;6113296;29;20027;-80
2021/10/03 13:27:45;;;;;;;4.07;3.67;;;19.30;99.90;;;;;;6129155;29;20031;-81
2021/10/03 13:30:46;;;;;;;6.75;4.13;;;19.40;99.90;;;;;;6112759;28;20038;-84
2021/10/03 13:33:47;;;;;;;3.90;3.50;;;19.40;99.90;;;;;;6113230;29;20031;-83
2021/10/03 13:36:47;;;;;;;4.45;3.42;;;19.50;99.90;;;;;;6113116;29;20034;-81
2021/10/03 13:39:48;;;;;;;15.05;5.07;;;19.70;99.90;;;;;;6112964;29;20078;-82
2021/10/03 13:42:48;;;;;;;5.15;3.50;;;19.80;99.90;;;;;;6097729;29;20030;-80
2021/10/03 13:45:49;;;;;;;4.18;3.40;;;19.90;99.90;;;;;;6128474;28;20042;-81
2021/10/03 13:48:50;;;;;;;4.07;3.67;;;19.90;99.90;;;;;;6100681;29;20062;-84
2021/10/03 13:51:50;;;;;;;5.57;3.88;;;19.90;99.90;;;;;;6139684;28;20051;-85
2021/10/03 13:54:51;;;;;;;5.03;3.72;;;20.10;99.90;;;;;;6141267;28;20066;-85
2021/10/03 13:57:52;;;;;;;3.60;3.30;;;19.60;99.90;;;;;;6141323;28;20030;-81
2021/10/03 14:00:52;;;;;;;7.47;3.97;;;19.50;99.90;;;;;;6125647;28;20045;-85
2021/10/03 14:03:53;;;;;;;5.03;3.30;;;19.80;99.90;;;;;;6141465;28;20044;-85
2021/10/03 14:06:54;;;;;;;5.78;3.58;;;19.30;99.90;;;;;;6125482;28;20481;-84
2021/10/03 14:09:54;;;;;;;4.82;3.75;;;19.50;99.90;;;;;;6140892;28;20033;-85
2021/10/03 14:12:55;;;;;;;8.35;3.45;;;19.60;99.90;;;;;;6125068;28;20019;-84
2021/10/03 14:15:56;;;;;;;4.60;3.70;;;19.30;99.90;;;;;;6124981;28;20027;-84
2021/10/03 14:18:59;;;;;;;4.80;3.97;;;19.20;99.90;;;;;;6140511;28;20052;-91
2021/10/03 14:22:00;;;;;;;7.45;3.72;;;19.10;99.90;;;;;;6125890;28;20418;-84
2021/10/03 14:25:00;;;;;;;5.40;3.83;;;19.40;99.90;;;;;;6125295;28;20027;-84
2021/10/03 14:28:01;;;;;;;11.93;6.25;;;;;;;;;;6156799;28;20034;-83
2021/10/03 14:31:02;;;;;;;17.42;10.00;;;;;;;;;;6174130;28;20073;-86
2021/10/03 14:34:03;;;;;;;7.50;4.93;;;;;;;;;;6157032;28;20033;-84
2021/10/03 14:37:06;;;;;;;5.53;4.53;;;;;;;;;;6174329;28;20058;-83
2021/10/03 14:40:07;;;;;;;6.03;3.92;;;19.30;99.90;;;;;;6140691;28;20117;-81
2021/10/03 14:43:08;;;;;;;6.40;3.67;;;;;;;;;;6173712;28;20473;-84
2021/10/03 14:46:09;;;;;;;6.80;4.55;;;;;;;;;;6140571;28;20050;-86
2021/10/03 14:49:10;;;;;;;5.03;3.80;;;;;;;;;;6156476;28;20045;-83
2021/10/03 14:52:11;;;;;;;5.35;4.20;;;;;;;;;;6140079;28;20046;-85
2021/10/03 14:55:12;;;;;;;7.50;5.43;;;18.80;99.90;;;;;;6140136;28;20070;-84
2021/10/03 14:58:13;;;;;;;7.03;4.28;;;19.00;99.90;;;;;;6123704;28;20070;-83
2021/10/03 15:01:13;;;;;;;6.65;3.90;;;18.60;99.90;;;;;;6140491;28;20029;-83
2021/10/03 15:04:14;;;;;;;6.90;5.05;;;18.60;99.90;;;;;;6124700;28;20027;-86
2021/10/03 15:07:14;;;;;;;5.57;4.40;;;18.70;99.90;;;;;;6124021;28;20469;-82
2021/10/03 15:10:16;;;;;;;6.50;4.43;;;;;;;;;;6139985;28;20050;-86
2021/10/03 15:13:17;;;;;;;6.90;5.47;;;18.80;99.90;;;;;;6156106;28;20031;-84
2021/10/03 15:16:19;;;;;;;5.63;4.38;;;18.70;99.90;;;;;;6140290;28;20461;-84
2021/10/03 15:19:38;;;;;;;7.88;7.18;;;18.70;99.90;;;;;;6140315;28;20038;-89
2021/10/03 15:22:39;;;;;;;8.30;5.53;;;;;;;;;;6124331;28;20031;-84
2021/10/03 15:25:45;;;;;;;8.02;5.10;;;19.00;99.90;;;;;;6155863;28;20031;-83
2021/10/03 15:28:46;;;;;;;7.68;5.95;;;;;;;;;;6124878;28;20085;-81
2021/10/03 15:31:47;;;;;;;8.65;6.60;;;18.90;99.90;;;;;;6155553;28;20035;-81
2021/10/03 15:34:47;;;;;;;7.93;6.57;;;18.70;99.90;;;;;;6139827;28;20031;-80
2021/10/03 15:37:48;;;;;;;7.68;6.45;;;18.60;99.90;;;;;;6154877;28;20023;-80
2021/10/03 15:40:48;;;;;;;8.80;6.38;;;18.50;99.90;;;;;;6139270;28;20497;-80
2021/10/03 15:43:49;;;;;;;9.90;7.47;;;18.50;99.90;;;;;;6138979;28;20034;-80
2021/10/03 15:46:52;;;;;;;18.88;14.43;;;18.40;99.90;;;;;;6171988;28;20089;-80
2021/10/03 15:49:52;;;;;;;19.10;14.25;;;18.40;99.90;;;;;;6139512;28;20055;-80
2021/10/03 15:52:53;;;;;;;9.38;7.55;;;18.40;99.90;;;;;;6171547;28;20033;-80
2021/10/03 15:55:54;;;;;;;9.85;6.78;;;18.30;99.90;;;;;;6155030;28;20027;-80
2021/10/03 15:58:54;;;;;;;7.57;6.13;;;17.20;99.90;;;;;;6139031;28;20031;-80
2021/10/03 16:01:55;;;;;;;7.57;6.50;;;18.30;99.90;;;;;;6138766;28;20109;-80
2021/10/03 16:04:55;;;;;;;17.75;6.93;;;18.30;99.90;;;;;;6169915;28;20082;-80
2021/10/03 16:07:56;;;;;;;8.55;6.47;;;18.30;99.90;;;;;;6170164;28;20454;-82
2021/10/03 16:10:57;;;;;;;8.88;5.93;;;18.40;99.90;;;;;;6153734;28;20043;-82
2021/10/03 16:13:57;;;;;;;7.32;6.63;;;18.30;99.90;;;;;;6138360;28;20413;-83